Time;durP1;ratioP1;P1;durP2;ratioP2;P2;SDS_P1;SDS_P2;PMS_P1;PMS_P2;Temp;Humidity;BMP_temperature;BMP_pressure;BME280_temperature;BME280_humidity;BME280_pressure;Samples;Min_cycle;Max_cycle;Signal;HPM_P1;HPM_P2
2022/09/22 00:00:24;;;;;;;2.10;2.00;;;5.60;99.90;;;;;;472747;251;27559;-68
2022/09/22 00:02:25;;;;;;;2.45;2.25;;;5.60;99.90;;;;;;472746;251;27559;-68
2022/09/22 00:04:26;;;;;;;2.00;1.90;;;5.70;99.90;;;;;;472737;251;27950;-67
2022/09/22 00:06:27;;;;;;;2.30;2.10;;;5.60;99.90;;;;;;472544;251;28012;-71
2022/09/22 00:08:29;;;;;;;2.00;1.90;;;5.60;99.90;;;;;;472744;251;27420;-68
2022/09/22 00:10:30;;;;;;;2.17;2.05;;;5.60;99.90;;;;;;472724;251;27464;-69
2022/09/22 00:12:31;;;;;;;2.40;2.25;;;5.50;99.90;;;;;;472731;251;27503;-68
2022/09/22 00:14:32;;;;;;;2.30;2.10;;;5.60;99.90;;;;;;472726;251;27459;-67
2022/09/22 00:16:35;;;;;;;2.25;2.15;;;5.60;99.90;;;;;;472671;251;27816;-71
2022/09/22 00:18:35;;;;;;;2.47;2.28;;;5.60;99.90;;;;;;472650;251;27974;-68
2022/09/22 00:20:36;;;;;;;2.60;2.40;;;5.50;99.90;;;;;;472730;251;27939;-70
2022/09/22 00:22:37;;;;;;;2.53;2.33;;;5.50;99.90;;;;;;472724;251;27428;-68
2022/09/22 00:24:39;;;;;;;2.45;2.25;;;5.50;99.90;;;;;;472742;251;27456;-68
2022/09/22 00:26:40;;;;;;;2.22;2.12;;;5.40;99.90;;;;;;472701;251;27544;-72
2022/09/22 00:28:41;;;;;;;2.10;2.00;;;5.40;99.90;;;;;;472741;251;27508;-67
2022/09/22 00:30:42;;;;;;;2.33;2.15;;;5.50;99.90;;;;;;472745;251;27543;-68
2022/09/22 00:32:44;;;;;;;2.65;2.45;;;5.40;99.90;;;;;;472656;251;27419;-69
2022/09/22 00:34:45;;;;;;;2.10;2.00;;;5.40;99.90;;;;;;472697;251;27941;-69
2022/09/22 00:36:46;;;;;;;2.10;2.00;;;5.40;99.90;;;;;;472681;251;28028;-69
2022/09/22 00:38:50;;;;;;;2.35;2.20;;;5.40;99.90;;;;;;472756;251;27882;-68
2022/09/22 00:40:49;;;;;;;2.12;2.03;;;5.40;99.90;;;;;;472372;251;27562;-69
2022/09/22 00:42:50;;;;;;;2.05;1.95;;;5.40;99.90;;;;;;472750;251;27417;-68
2022/09/22 00:44:51;;;;;;;2.47;2.35;;;5.50;99.90;;;;;;472743;251;27456;-67
2022/09/22 00:46:52;;;;;;;1.95;1.85;;;5.50;99.90;;;;;;472694;251;27455;-69
2022/09/22 00:48:54;;;;;;;1.95;1.75;;;5.40;99.90;;;;;;472736;251;27429;-68
2022/09/22 00:50:55;;;;;;;2.15;2.05;;;5.20;99.90;;;;;;472736;251;27498;-68
2022/09/22 00:52:57;;;;;;;2.25;2.08;;;5.30;99.90;;;;;;472719;251;27988;-66
2022/09/22 00:54:57;;;;;;;2.67;2.05;;;5.30;99.90;;;;;;472715;251;27941;-65
2022/09/22 00:56:59;;;;;;;2.22;2.10;;;5.30;99.90;;;;;;472704;251;28111;-65
2022/09/22 00:59:00;;;;;;;2.28;2.17;;;5.20;99.90;;;;;;472751;251;27504;-65
2022/09/22 01:01:01;;;;;;;2.62;2.45;;;5.20;99.90;;;;;;472772;251;27527;-68
2022/09/22 01:03:02;;;;;;;2.60;2.40;;;5.10;99.90;;;;;;472763;251;27516;-68
2022/09/22 01:05:04;;;;;;;2.20;2.10;;;5.10;99.90;;;;;;472758;251;27527;-67
2022/09/22 01:07:05;;;;;;;2.22;2.10;;;5.10;99.90;;;;;;472693;251;27906;-67
2022/09/22 01:09:06;;;;;;;2.47;2.30;;;5.10;99.90;;;;;;472735;251;27504;-68
2022/09/22 01:11:07;;;;;;;2.10;2.00;;;5.10;99.90;;;;;;472467;251;27990;-70
2022/09/22 01:13:09;;;;;;;2.40;2.25;;;5.10;99.90;;;;;;472756;251;27880;-68
2022/09/22 01:15:10;;;;;;;2.53;2.35;;;5.10;99.90;;;;;;472751;251;27555;-68
2022/09/22 01:17:11;;;;;;;2.25;2.15;;;5.10;99.90;;;;;;472690;251;27464;-67
2022/09/22 01:19:12;;;;;;;2.17;2.08;;;5.10;99.90;;;;;;472758;251;27419;-68
2022/09/22 01:21:14;;;;;;;2.08;1.95;;;5.10;99.90;;;;;;472749;251;27444;-70
2022/09/22 01:23:15;;;;;;;2.10;2.00;;;5.20;99.90;;;;;;472733;251;27551;-68
2022/09/22 01:25:16;;;;;;;2.60;2.40;;;5.20;99.90;;;;;;472732;251;27471;-69
2022/09/22 01:27:17;;;;;;;2.60;2.40;;;5.20;99.90;;;;;;472719;251;27416;-68
2022/09/22 01:29:19;;;;;;;1.95;1.85;;;5.20;99.90;;;;;;472732;251;27996;-68
2022/09/22 01:31:20;;;;;;;2.45;2.25;;;5.20;99.90;;;;;;472742;251;27967;-70
2022/09/22 01:33:21;;;;;;;2.35;2.20;;;5.10;99.90;;;;;;472750;251;27892;-68
2022/09/22 01:35:22;;;;;;;2.17;2.08;;;5.10;99.90;;;;;;472703;251;27526;-68
2022/09/22 01:37:24;;;;;;;2.37;2.28;;;5.20;99.90;;;;;;472712;251;27486;-70
2022/09/22 01:39:25;;;;;;;2.10;2.00;;;5.20;99.90;;;;;;472735;251;27447;-68
2022/09/22 01:41:27;;;;;;;4.22;2.35;;;5.10;99.90;;;;;;472742;251;27460;-70
2022/09/22 01:43:27;;;;;;;1.90;1.80;;;5.10;99.90;;;;;;472735;251;27428;-68
2022/09/22 01:45:29;;;;;;;2.80;2.60;;;5.10;99.90;;;;;;472709;251;27552;-69
2022/09/22 01:47:30;;;;;;;2.65;2.30;;;5.10;99.90;;;;;;472683;251;27896;-68
2022/09/22 01:49:31;;;;;;;2.15;2.05;;;5.20;99.90;;;;;;472714;251;27915;-68
2022/09/22 01:51:32;;;;;;;2.45;2.25;;;5.20;99.90;;;;;;472741;251;27958;-72
2022/09/22 01:53:34;;;;;;;2.40;2.30;;;5.30;99.90;;;;;;472751;251;27433;-68
2022/09/22 01:55:35;;;;;;;2.37;2.28;;;5.10;99.90;;;;;;472738;251;27479;-68
2022/09/22 01:57:36;;;;;;;2.17;2.08;;;5.10;99.90;;;;;;472676;251;27505;-68
2022/09/22 01:59:38;;;;;;;4.05;2.20;;;5.00;99.90;;;;;;472752;251;27432;-68
2022/09/22 02:01:39;;;;;;;2.40;2.30;;;4.90;99.90;;;;;;472726;251;27456;-69
2022/09/22 02:03:40;;;;;;;2.30;2.20;;;4.90;99.90;;;;;;472748;251;27483;-68
2022/09/22 02:05:41;;;;;;;2.00;1.90;;;4.80;99.90;;;;;;472750;251;27560;-67
2022/09/22 02:07:43;;;;;;;2.53;2.28;;;4.80;99.90;;;;;;472706;251;28205;-71
2022/09/22 02:09:44;;;;;;;2.28;2.10;;;4.80;99.90;;;;;;472763;251;28002;-68
2022/09/22 02:11:45;;;;;;;2.03;1.92;;;4.80;99.90;;;;;;472755;251;27560;-67
2022/09/22 02:13:46;;;;;;;2.00;1.90;;;4.80;99.90;;;;;;472754;251;27432;-67
2022/09/22 02:16:00;;;;;;;2.30;2.20;;;4.80;99.90;;;;;;472713;251;27470;-67
2022/09/22 02:18:01;;;;;;;2.37;2.17;;;4.80;99.90;;;;;;472683;251;27523;-72
2022/09/22 02:20:02;;;;;;;2.25;2.15;;;4.80;99.90;;;;;;472758;251;27425;-68
2022/09/22 02:22:03;;;;;;;2.10;2.00;;;4.80;99.90;;;;;;472716;251;27463;-68
2022/09/22 02:24:05;;;;;;;2.40;2.30;;;4.90;99.90;;;;;;472740;251;27989;-68
2022/09/22 02:26:06;;;;;;;2.47;2.28;;;4.90;99.90;;;;;;472643;251;27970;-74
2022/09/22 02:28:07;;;;;;;2.22;2.12;;;5.00;99.90;;;;;;472756;251;28034;-72
2022/09/22 02:30:08;;;;;;;2.00;1.90;;;5.00;99.90;;;;;;472751;251;27427;-68
2022/09/22 02:32:10;;;;;;;1.90;1.80;;;4.90;99.90;;;;;;472748;251;27452;-68
2022/09/22 02:34:11;;;;;;;2.60;2.40;;;4.90;99.90;;;;;;472748;251;27424;-68
2022/09/22 02:36:12;;;;;;;2.00;1.90;;;4.80;99.90;;;;;;472644;251;27436;-68
2022/09/22 02:38:13;;;;;;;2.03;1.90;;;4.70;99.90;;;;;;472760;251;27558;-71
2022/09/22 02:40:15;;;;;;;2.10;1.90;;;4.70;99.90;;;;;;472753;251;27421;-68
2022/09/22 02:42:16;;;;;;;2.20;2.10;;;4.70;99.90;;;;;;472747;251;27615;-69
2022/09/22 02:44:17;;;;;;;3.47;2.10;;;4.70;99.90;;;;;;472735;251;27893;-68
2022/09/22 02:46:18;;;;;;;2.08;1.98;;;4.70;99.90;;;;;;472670;251;27918;-68
2022/09/22 02:48:20;;;;;;;2.30;2.10;;;4.70;99.90;;;;;;472728;251;28024;-71
2022/09/22 02:50:21;;;;;;;2.00;1.90;;;4.70;99.90;;;;;;472729;251;27448;-67
2022/09/22 02:52:22;;;;;;;2.15;2.03;;;4.60;99.90;;;;;;472731;251;27490;-69
2022/09/22 02:54:23;;;;;;;2.00;1.90;;;4.60;99.90;;;;;;472713;251;27511;-68
2022/09/22 02:56:25;;;;;;;2.00;1.90;;;4.60;99.90;;;;;;472678;251;27437;-68
2022/09/22 02:58:26;;;;;;;2.97;1.98;;;4.60;99.90;;;;;;472733;251;27475;-70
2022/09/22 03:00:27;;;;;;;1.90;1.80;;;4.60;99.90;;;;;;472728;251;27440;-67
2022/09/22 03:02:28;;;;;;;1.92;1.83;;;4.50;99.90;;;;;;472706;251;27539;-68
2022/09/22 03:04:30;;;;;;;2.00;1.90;;;4.60;99.90;;;;;;472740;251;27432;-68
2022/09/22 03:06:31;;;;;;;1.87;1.77;;;4.50;99.90;;;;;;472689;251;27889;-68
2022/09/22 03:08:32;;;;;;;2.12;2.03;;;4.60;99.90;;;;;;472686;251;27958;-71
2022/09/22 03:10:34;;;;;;;2.10;2.00;;;4.60;99.90;;;;;;472729;251;27970;-68
2022/09/22 03:12:35;;;;;;;2.20;2.10;;;4.60;99.90;;;;;;472766;251;27527;-68
2022/09/22 03:14:36;;;;;;;2.37;2.28;;;4.60;99.90;;;;;;472747;251;27535;-67
2022/09/22 03:16:37;;;;;;;1.92;1.83;;;4.60;99.90;;;;;;472677;251;27504;-65
2022/09/22 03:18:38;;;;;;;2.15;2.05;;;4.60;99.90;;;;;;472637;251;27547;-70
2022/09/22 03:20:40;;;;;;;2.30;2.20;;;4.60;99.90;;;;;;472742;251;27516;-67
2022/09/22 03:22:41;;;;;;;2.30;2.20;;;4.60;99.90;;;;;;472751;251;27419;-69
2022/09/22 03:24:42;;;;;;;2.10;2.00;;;4.50;99.90;;;;;;472738;251;27428;-68
2022/09/22 03:26:44;;;;;;;2.30;2.20;;;4.50;99.90;;;;;;472665;251;27976;-67
2022/09/22 03:28:45;;;;;;;2.12;2.03;;;4.50;99.90;;;;;;472747;251;28030;-69
2022/09/22 03:30:46;;;;;;;2.00;1.90;;;4.50;99.90;;;;;;472723;251;27959;-68
2022/09/22 03:32:47;;;;;;;2.15;2.00;;;4.50;99.90;;;;;;472690;251;27531;-68
2022/09/22 03:34:49;;;;;;;2.20;2.10;;;4.50;99.90;;;;;;472721;251;27527;-67
2022/09/22 03:36:50;;;;;;;2.28;2.08;;;4.50;99.90;;;;;;472684;251;27498;-67
2022/09/22 03:38:51;;;;;;;2.20;2.10;;;4.50;99.90;;;;;;472710;251;27566;-69
2022/09/22 03:40:52;;;;;;;2.28;2.17;;;4.50;99.90;;;;;;472715;251;27536;-67
2022/09/22 03:42:54;;;;;;;2.00;1.90;;;4.50;99.90;;;;;;472732;251;27464;-68
2022/09/22 03:44:55;;;;;;;2.28;2.17;;;4.50;99.90;;;;;;472731;251;27907;-73
2022/09/22 03:46:56;;;;;;;2.20;2.10;;;4.50;99.90;;;;;;472646;251;27471;-68
2022/09/22 03:48:57;;;;;;;2.60;2.40;;;4.50;99.90;;;;;;472718;251;28037;-68
2022/09/22 03:50:59;;;;;;;2.30;2.10;;;4.50;99.90;;;;;;472754;251;27922;-68
2022/09/22 03:53:00;;;;;;;2.47;2.28;;;4.40;99.90;;;;;;472718;251;27947;-68
2022/09/22 03:55:01;;;;;;;2.33;2.22;;;4.40;99.90;;;;;;472742;251;27452;-69
2022/09/22 03:57:02;;;;;;;2.20;2.10;;;4.30;99.90;;;;;;472682;251;27505;-68
2022/09/22 03:59:04;;;;;;;2.20;2.00;;;4.40;99.90;;;;;;472744;251;27451;-69
2022/09/22 04:01:05;;;;;;;2.10;2.00;;;4.40;99.90;;;;;;472756;251;27447;-69
2022/09/22 04:03:06;;;;;;;2.10;2.00;;;4.40;99.90;;;;;;472655;251;27467;-69
2022/09/22 04:05:07;;;;;;;2.00;1.90;;;4.30;99.90;;;;;;472763;251;27804;-71
2022/09/22 04:07:09;;;;;;;2.10;2.00;;;4.40;99.90;;;;;;472717;251;27456;-68
2022/09/22 04:09:10;;;;;;;2.30;2.20;;;4.40;99.90;;;;;;472753;251;27928;-69
2022/09/22 04:11:11;;;;;;;2.17;2.08;;;4.40;99.90;;;;;;472739;251;28068;-69
2022/09/22 04:13:12;;;;;;;2.30;2.17;;;4.40;99.90;;;;;;472743;251;27926;-68
2022/09/22 04:15:14;;;;;;;2.20;2.10;;;4.30;99.90;;;;;;472750;251;27716;-67
2022/09/22 04:17:15;;;;;;;2.60;2.40;;;4.40;99.90;;;;;;472729;251;27451;-68
2022/09/22 04:19:16;;;;;;;2.47;2.28;;;4.40;99.90;;;;;;472742;251;27484;-70
2022/09/22 04:21:17;;;;;;;2.33;2.20;;;4.40;99.90;;;;;;472745;251;27416;-67
2022/09/22 04:23:19;;;;;;;2.50;2.30;;;4.40;99.90;;;;;;472728;251;27514;-69
2022/09/22 04:25:20;;;;;;;2.47;2.28;;;4.40;99.90;;;;;;472756;251;27436;-68
2022/09/22 04:27:21;;;;;;;2.70;2.53;;;4.40;99.90;;;;;;472675;251;27455;-65
2022/09/22 04:29:22;;;;;;;2.95;2.75;;;4.40;99.90;;;;;;472734;251;27597;-67
2022/09/22 04:31:24;;;;;;;2.50;2.40;;;4.40;99.90;;;;;;472727;251;27480;-65
2022/09/22 04:33:25;;;;;;;2.90;2.70;;;4.30;99.90;;;;;;472698;251;28027;-66
2022/09/22 04:35:27;;;;;;;3.08;2.87;;;4.20;99.90;;;;;;472659;251;28029;-66
2022/09/22 04:37:27;;;;;;;2.70;2.50;;;4.20;99.90;;;;;;472453;251;27887;-65
2022/09/22 04:39:29;;;;;;;2.65;2.55;;;4.20;99.90;;;;;;472715;251;27455;-68
2022/09/22 04:41:30;;;;;;;2.80;2.60;;;4.20;99.90;;;;;;472728;251;27423;-66
2022/09/22 04:43:31;;;;;;;2.47;2.37;;;4.20;99.90;;;;;;472702;251;27538;-65
2022/09/22 04:45:32;;;;;;;2.70;2.50;;;4.20;99.90;;;;;;472698;251;27421;-65
2022/09/22 04:47:34;;;;;;;2.40;2.30;;;4.20;99.90;;;;;;472673;251;27440;-66
2022/09/22 04:49:35;;;;;;;2.47;2.37;;;4.20;99.90;;;;;;472744;251;27471;-68
2022/09/22 04:51:36;;;;;;;2.97;2.78;;;4.20;99.90;;;;;;472739;251;27479;-66
2022/09/22 04:53:37;;;;;;;2.50;2.40;;;4.30;99.90;;;;;;472734;251;28034;-66
2022/09/22 04:55:39;;;;;;;3.55;3.35;;;4.20;99.90;;;;;;472751;251;27875;-65
2022/09/22 04:57:40;;;;;;;2.87;2.67;;;4.20;99.90;;;;;;472662;251;28019;-66
2022/09/22 04:59:41;;;;;;;2.60;2.50;;;4.20;99.90;;;;;;472739;251;28093;-67
2022/09/22 05:01:42;;;;;;;2.40;2.30;;;4.20;99.90;;;;;;472768;251;27505;-66
2022/09/22 05:03:44;;;;;;;2.40;2.30;;;4.20;99.90;;;;;;472734;251;27558;-66
2022/09/22 05:05:45;;;;;;;2.92;2.62;;;4.20;99.90;;;;;;472739;251;27503;-67
2022/09/22 05:07:46;;;;;;;2.60;2.50;;;4.10;99.90;;;;;;472682;251;27575;-65
2022/09/22 05:09:47;;;;;;;3.25;2.97;;;4.20;99.90;;;;;;472747;251;27560;-72
2022/09/22 05:11:49;;;;;;;2.70;2.60;;;4.20;99.90;;;;;;472732;251;27439;-67
2022/09/22 05:13:50;;;;;;;2.95;2.75;;;4.20;99.90;;;;;;472681;251;27464;-68
2022/09/22 05:15:51;;;;;;;3.37;2.60;;;4.20;99.90;;;;;;472781;251;27523;-67
2022/09/22 05:17:52;;;;;;;2.60;2.50;;;4.20;99.90;;;;;;472654;251;27928;-68
2022/09/22 05:19:54;;;;;;;2.70;2.55;;;4.20;99.90;;;;;;472776;251;27924;-72
2022/09/22 05:21:55;;;;;;;2.60;2.50;;;4.20;99.90;;;;;;472758;251;27875;-68
2022/09/22 05:23:56;;;;;;;2.40;2.30;;;4.20;99.90;;;;;;472754;251;27480;-68
2022/09/22 05:25:57;;;;;;;2.95;2.85;;;4.20;99.90;;;;;;472730;251;27515;-68
2022/09/22 05:27:59;;;;;;;2.90;2.78;;;4.20;99.90;;;;;;472699;251;27544;-68
2022/09/22 05:30:00;;;;;;;3.35;3.15;;;4.20;99.90;;;;;;472736;251;27542;-69
2022/09/22 05:32:01;;;;;;;3.65;3.35;;;4.10;99.90;;;;;;472725;251;27515;-68
2022/09/22 05:34:02;;;;;;;2.70;2.50;;;4.10;99.90;;;;;;472716;251;27572;-69
2022/09/22 05:36:04;;;;;;;3.33;3.12;;;4.10;99.90;;;;;;472677;251;27432;-68
2022/09/22 05:38:05;;;;;;;2.95;2.75;;;4.10;99.90;;;;;;472727;251;27535;-68
2022/09/22 05:40:06;;;;;;;3.20;3.00;;;4.20;99.90;;;;;;472760;251;27480;-71
2022/09/22 05:42:07;;;;;;;3.17;3.00;;;4.20;99.90;;;;;;472758;251;27891;-68
2022/09/22 05:44:09;;;;;;;3.30;3.10;;;4.20;99.90;;;;;;472727;251;27960;-68
2022/09/22 05:46:10;;;;;;;3.30;3.10;;;4.20;99.90;;;;;;472661;251;27883;-67
2022/09/22 05:48:11;;;;;;;2.75;2.65;;;4.20;99.90;;;;;;472757;251;27891;-68
2022/09/22 05:50:12;;;;;;;2.87;2.67;;;4.20;99.90;;;;;;472734;251;27557;-70
2022/09/22 05:52:14;;;;;;;2.60;2.50;;;4.20;99.90;;;;;;472737;251;27443;-68
2022/09/22 05:54:15;;;;;;;2.97;2.78;;;4.30;99.90;;;;;;472737;251;27475;-67
2022/09/22 05:56:16;;;;;;;2.42;2.28;;;4.30;99.90;;;;;;472684;251;27458;-65
2022/09/22 05:58:17;;;;;;;2.45;2.25;;;4.30;99.90;;;;;;472742;251;27432;-65
2022/09/22 06:00:19;;;;;;;2.55;2.35;;;4.40;99.90;;;;;;472752;251;27547;-67
2022/09/22 06:02:20;;;;;;;2.55;2.40;;;4.40;99.90;;;;;;472750;251;27432;-66
2022/09/22 06:04:21;;;;;;;2.60;2.45;;;4.50;99.90;;;;;;472722;251;27545;-66
2022/09/22 06:06:22;;;;;;;2.33;2.22;;;4.50;99.90;;;;;;472768;251;27524;-65
2022/09/22 06:08:24;;;;;;;2.75;2.60;;;4.50;99.90;;;;;;472702;251;27903;-65
2022/09/22 06:10:25;;;;;;;2.60;2.40;;;4.50;99.90;;;;;;472749;251;27974;-71
2022/09/22 06:12:26;;;;;;;3.87;2.80;;;4.50;99.90;;;;;;472716;251;27968;-67
2022/09/22 06:14:27;;;;;;;2.33;2.22;;;4.60;99.90;;;;;;472648;251;27455;-68
2022/09/22 06:16:29;;;;;;;2.28;2.17;;;4.60;99.90;;;;;;472586;251;27539;-69
2022/09/22 06:18:30;;;;;;;2.70;2.50;;;4.60;99.90;;;;;;472619;251;27436;-68
2022/09/22 06:20:31;;;;;;;2.85;2.62;;;4.60;99.90;;;;;;472588;251;27586;-70
2022/09/22 06:22:34;;;;;;;2.50;2.40;;;4.70;99.90;;;;;;472628;251;27432;-69
2022/09/22 06:24:34;;;;;;;2.33;2.22;;;4.70;99.90;;;;;;472674;251;27465;-68
2022/09/22 06:26:35;;;;;;;2.70;2.50;;;4.70;99.90;;;;;;472662;251;27436;-68
2022/09/22 06:28:36;;;;;;;2.85;2.65;;;4.80;99.90;;;;;;472736;251;28085;-68
2022/09/22 06:30:40;;;;;;;2.45;2.35;;;4.90;99.90;;;;;;472744;251;27989;-69
2022/09/22 06:32:42;;;;;;;2.72;2.53;;;4.90;99.90;;;;;;472735;251;28032;-69
2022/09/22 06:34:44;;;;;;;3.00;2.80;;;4.90;99.90;;;;;;472720;251;27515;-65
2022/09/22 06:36:44;;;;;;;2.67;2.58;;;5.00;99.90;;;;;;472561;251;27464;-65
2022/09/22 06:38:46;;;;;;;3.00;2.80;;;5.00;99.90;;;;;;472704;251;27457;-68
2022/09/22 06:40:47;;;;;;;2.85;2.65;;;5.10;99.90;;;;;;472761;251;27537;-65
2022/09/22 06:42:48;;;;;;;2.95;2.75;;;5.10;99.90;;;;;;472738;251;27579;-65
2022/09/22 06:44:49;;;;;;;2.53;2.42;;;5.20;99.90;;;;;;472779;251;27429;-65
2022/09/22 06:46:50;;;;;;;2.62;2.42;;;5.20;99.90;;;;;;472699;251;27440;-66
2022/09/22 06:48:56;;;;;;;2.22;2.12;;;5.20;99.90;;;;;;472774;251;27915;-67
2022/09/22 06:50:53;;;;;;;2.67;2.47;;;5.30;99.90;;;;;;472472;251;27883;-68
2022/09/22 06:52:54;;;;;;;2.60;2.40;;;5.30;99.90;;;;;;472709;251;27964;-69
2022/09/22 06:54:58;;;;;;;2.95;2.75;;;5.30;99.90;;;;;;472749;251;27507;-68
2022/09/22 06:56:57;;;;;;;2.65;2.45;;;5.30;99.90;;;;;;472528;251;27493;-68
2022/09/22 06:58:58;;;;;;;2.40;2.20;;;5.40;99.90;;;;;;472802;251;27542;-69
2022/09/22 07:01:05;;;;;;;3.12;2.70;;;5.50;99.90;;;;;;472767;251;27491;-67
2022/09/22 07:03:01;;;;;;;2.80;2.60;;;5.50;99.90;;;;;;472283;251;27507;-67
2022/09/22 07:05:02;;;;;;;2.92;2.65;;;5.60;99.90;;;;;;472727;251;27511;-68
2022/09/22 07:07:03;;;;;;;2.58;2.37;;;5.60;99.90;;;;;;472679;251;27969;-67
2022/09/22 07:09:04;;;;;;;2.97;2.70;;;5.70;99.90;;;;;;472754;251;28008;-68
2022/09/22 07:11:09;;;;;;;2.60;2.40;;;5.70;99.90;;;;;;472742;251;27460;-68
2022/09/22 07:13:10;;;;;;;2.40;2.30;;;5.90;99.90;;;;;;472742;251;27427;-66
2022/09/22 07:15:12;;;;;;;2.47;2.37;;;6.00;99.90;;;;;;472748;251;27468;-69
2022/09/22 07:17:12;;;;;;;2.53;2.37;;;6.00;99.90;;;;;;472664;251;27471;-72
2022/09/22 07:19:14;;;;;;;2.55;2.45;;;6.10;99.90;;;;;;472735;251;27443;-68
2022/09/22 07:21:15;;;;;;;2.65;2.45;;;6.30;99.90;;;;;;472748;251;27459;-67
2022/09/22 07:23:20;;;;;;;3.08;2.50;;;6.50;99.90;;;;;;472743;251;27463;-67
2022/09/22 07:25:20;;;;;;;2.40;2.30;;;6.70;99.90;;;;;;472740;251;27433;-67
2022/09/22 07:27:25;;;;;;;2.90;2.70;;;7.40;99.90;;;;;;472671;251;27510;-66
2022/09/22 07:29:23;;;;;;;3.05;2.50;;;7.90;99.90;;;;;;472580;251;27559;-68
2022/09/22 07:31:24;;;;;;;2.75;2.55;;;8.10;99.90;;;;;;472748;251;27990;-66
2022/09/22 07:33:25;;;;;;;3.30;3.10;;;8.10;99.90;;;;;;472745;251;27939;-67
2022/09/22 07:35:27;;;;;;;4.00;2.80;;;8.40;99.90;;;;;;472747;251;28615;-68
2022/09/22 07:37:32;;;;;;;2.40;2.30;;;8.50;99.90;;;;;;472699;251;28482;-68
2022/09/22 07:39:29;;;;;;;2.80;2.60;;;8.50;99.90;;;;;;472256;251;27970;-71
2022/09/22 07:41:30;;;;;;;2.97;2.77;;;8.50;99.90;;;;;;472736;251;27793;-68
2022/09/22 07:43:32;;;;;;;5.90;2.97;;;8.90;99.90;;;;;;472747;251;27999;-70
2022/09/22 07:45:33;;;;;;;3.33;3.03;;;9.10;99.90;;;;;;472751;251;27994;-68
2022/09/22 07:49:54;;;;;;;2.80;2.60;;;9.30;99.90;;;;;;472727;251;27941;-66
2022/09/22 07:51:56;;;;;;;3.30;2.73;;;9.30;99.90;;;;;;472750;251;27429;-68
2022/09/22 07:54:09;;;;;;;2.50;2.30;;;9.40;99.90;;;;;;472706;251;27568;-68
2022/09/22 07:56:13;;;;;;;2.63;2.43;;;9.30;99.90;;;;;;472660;251;28492;-67
2022/09/22 07:58:14;;;;;;;2.83;2.50;;;9.50;99.90;;;;;;472730;251;27893;-68
2022/09/22 08:00:15;;;;;;;4.33;3.50;;;9.60;99.90;;;;;;472741;251;28001;-68
2022/09/22 08:02:16;;;;;;;2.87;2.53;;;9.90;99.90;;;;;;472763;251;27591;-69
2022/09/22 08:04:19;;;;;;;3.10;2.90;;;9.80;99.90;;;;;;472757;251;27844;-69
2022/09/22 08:06:19;;;;;;;2.47;2.27;;;10.00;99.90;;;;;;472530;251;28001;-68
2022/09/22 08:08:20;;;;;;;3.00;2.80;;;9.70;99.90;;;;;;472723;251;28811;-69
2022/09/22 08:10:21;;;;;;;2.90;2.70;;;9.60;99.90;;;;;;472721;251;28266;-69
2022/09/22 08:12:23;;;;;;;3.00;2.80;;;9.90;99.90;;;;;;472687;251;28558;-68
2022/09/22 08:14:24;;;;;;;3.30;3.00;;;10.10;99.90;;;;;;472699;251;28042;-74
2022/09/22 08:16:27;;;;;;;2.77;2.57;;;10.10;99.90;;;;;;472613;251;28262;-69
2022/09/22 08:18:26;;;;;;;3.00;2.70;;;10.10;99.90;;;;;;472646;251;28024;-70
2022/09/22 08:20:28;;;;;;;2.93;2.73;;;10.30;99.90;;;;;;472767;251;27905;-68
2022/09/22 08:22:29;;;;;;;2.70;2.50;;;10.30;99.90;;;;;;472704;251;27982;-69
2022/09/22 08:24:30;;;;;;;2.83;2.63;;;10.40;99.90;;;;;;472733;251;27675;-68
2022/09/22 08:26:31;;;;;;;4.57;2.50;;;10.60;99.90;;;;;;472622;251;27928;-69
2022/09/22 08:28:32;;;;;;;2.57;2.37;;;10.70;99.90;;;;;;472765;251;27572;-68
2022/09/22 08:30:35;;;;;;;2.90;2.60;;;10.70;99.90;;;;;;472770;251;27967;-68
2022/09/22 08:32:35;;;;;;;2.67;2.47;;;10.70;99.90;;;;;;472717;251;27949;-68
2022/09/22 08:34:36;;;;;;;2.90;2.70;;;10.70;99.90;;;;;;472768;251;28398;-71
2022/09/22 08:36:37;;;;;;;5.03;2.63;;;11.00;99.90;;;;;;472659;251;29106;-68
2022/09/22 08:38:39;;;;;;;2.40;2.20;;;11.10;99.90;;;;;;472754;251;28433;-70
2022/09/22 08:40:41;;;;;;;4.43;2.73;;;11.00;99.90;;;;;;472717;251;28332;-68
2022/09/22 08:42:43;;;;;;;2.73;2.40;;;10.90;99.90;;;;;;472715;251;28027;-69
2022/09/22 08:44:42;;;;;;;2.67;2.47;;;11.00;99.90;;;;;;472703;251;27951;-69
2022/09/22 08:46:44;;;;;;;3.00;2.80;;;11.10;99.90;;;;;;472647;251;27917;-69
2022/09/22 08:53:24;;;;;;;3.43;2.20;;;11.30;99.90;;;;;;472768;251;28123;-67
2022/09/22 08:55:25;;;;;;;2.80;2.60;;;11.40;99.90;;;;;;472524;251;27680;-70
2022/09/22 08:57:27;;;;;;;2.73;2.53;;;11.50;99.90;;;;;;472683;251;27945;-68
2022/09/22 08:59:28;;;;;;;2.53;2.13;;;11.70;99.90;;;;;;472749;251;28027;-69
2022/09/22 09:01:29;;;;;;;3.07;2.30;;;11.70;99.90;;;;;;472791;251;27931;-71
2022/09/22 09:03:30;;;;;;;2.70;2.50;;;11.70;99.90;;;;;;472759;251;27912;-69
2022/09/22 09:05:32;;;;;;;3.00;2.40;;;11.70;99.90;;;;;;472762;251;28179;-70
2022/09/22 09:07:33;;;;;;;3.00;2.50;;;11.80;99.90;;;;;;472645;251;28036;-68
2022/09/22 09:09:34;;;;;;;2.40;2.20;;;11.90;99.90;;;;;;472746;251;27957;-69
2022/09/22 09:11:35;;;;;;;2.43;2.23;;;11.90;99.90;;;;;;472790;251;27944;-72
2022/09/22 09:13:39;;;;;;;2.77;2.20;;;11.90;99.90;;;;;;472749;251;28503;-69
2022/09/22 09:15:38;;;;;;;2.60;2.20;;;11.90;99.90;;;;;;472668;251;28550;-70
2022/09/22 09:17:39;;;;;;;2.70;2.50;;;12.00;99.90;;;;;;472570;251;28590;-68
2022/09/22 09:19:41;;;;;;;2.43;2.23;;;12.10;99.90;;;;;;472761;251;27935;-69
2022/09/22 09:21:42;;;;;;;2.37;2.27;;;12.10;99.90;;;;;;472775;251;28150;-72
2022/09/22 09:23:43;;;;;;;3.43;2.10;;;12.00;99.90;;;;;;472763;251;28240;-68
2022/09/22 09:25:44;;;;;;;2.80;2.10;;;12.00;99.90;;;;;;472679;251;28284;-70
2022/09/22 09:27:45;;;;;;;4.05;2.10;;;12.30;99.90;;;;;;472412;251;28866;-69
2022/09/22 09:29:47;;;;;;;2.40;2.30;;;12.40;99.90;;;;;;472783;251;27554;-69
2022/09/22 09:31:48;;;;;;;3.00;2.70;;;12.40;99.90;;;;;;472752;251;28491;-69
2022/09/22 09:33:49;;;;;;;2.50;2.30;;;12.40;99.90;;;;;;472767;251;28271;-69
2022/09/22 09:35:52;;;;;;;2.10;2.00;;;12.50;99.90;;;;;;472756;251;28273;-70
2022/09/22 09:37:52;;;;;;;2.10;2.00;;;12.60;99.90;;;;;;472507;251;28659;-74
2022/09/22 09:39:53;;;;;;;2.13;1.57;;;12.60;99.90;;;;;;472783;251;28862;-70
2022/09/22 09:41:54;;;;;;;1.87;1.77;;;12.50;99.90;;;;;;472761;251;28868;-69
2022/09/22 09:43:55;;;;;;;2.70;2.13;;;12.60;99.90;;;;;;472764;251;28256;-69
2022/09/22 09:45:57;;;;;;;3.80;1.83;;;12.70;99.90;;;;;;472769;251;28053;-70
2022/09/22 09:47:58;;;;;;;2.07;1.97;;;12.70;99.90;;;;;;472670;251;28146;-68
2022/09/22 09:49:59;;;;;;;2.13;1.93;;;12.80;99.90;;;;;;472766;251;28395;-69
2022/09/22 09:52:00;;;;;;;1.70;1.60;;;12.80;99.90;;;;;;472795;251;28287;-69
2022/09/22 09:54:04;;;;;;;2.40;1.93;;;12.90;99.90;;;;;;472771;251;28271;-69
2022/09/22 09:56:03;;;;;;;2.13;1.90;;;12.90;99.90;;;;;;472621;251;28305;-73
2022/09/22 09:58:04;;;;;;;2.20;2.00;;;12.90;99.90;;;;;;472729;251;28577;-68
2022/09/22 10:02:26;;;;;;;1.60;1.50;;;13.00;99.90;;;;;;472784;251;28511;-72
2022/09/22 10:04:26;;;;;;;2.43;2.03;;;13.00;99.90;;;;;;472703;251;28476;-68
2022/09/22 10:06:27;;;;;;;2.43;1.70;;;12.80;99.90;;;;;;472728;251;28399;-70
2022/09/22 10:08:33;;;;;;;2.00;1.77;;;13.00;99.90;;;;;;472686;251;28502;-68
2022/09/22 10:10:32;;;;;;;1.80;1.70;;;13.20;99.90;;;;;;472301;251;28567;-69
2022/09/22 10:12:32;;;;;;;2.50;2.00;;;13.20;99.90;;;;;;472468;251;28707;-74
2022/09/22 10:14:32;;;;;;;1.67;1.57;;;13.20;99.90;;;;;;472712;251;29256;-68
2022/09/22 10:16:35;;;;;;;1.80;1.73;;;13.00;99.90;;;;;;472700;251;28594;-72
2022/09/22 10:18:35;;;;;;;1.87;1.67;;;13.20;99.90;;;;;;472705;251;28554;-69
2022/09/22 10:20:36;;;;;;;1.53;1.53;;;13.30;99.90;;;;;;472787;251;28470;-68
2022/09/22 10:22:37;;;;;;;1.50;1.40;;;13.50;99.90;;;;;;472760;251;28873;-68
2022/09/22 10:24:38;;;;;;;2.00;1.80;;;13.70;99.90;;;;;;472773;251;28813;-69
2022/09/22 10:26:40;;;;;;;1.63;1.53;;;13.70;99.90;;;;;;472680;251;28408;-69
2022/09/22 10:28:41;;;;;;;1.60;1.50;;;13.50;99.90;;;;;;472758;251;28560;-69
2022/09/22 10:30:43;;;;;;;1.80;1.70;;;13.50;99.90;;;;;;472763;249;28390;-70
2022/09/22 10:32:43;;;;;;;1.70;1.60;;;13.60;99.90;;;;;;472716;251;29018;-71
2022/09/22 10:34:45;;;;;;;2.00;1.60;;;13.60;99.90;;;;;;472742;251;28783;-68
2022/09/22 10:36:46;;;;;;;2.50;1.60;;;13.50;99.90;;;;;;472732;251;29360;-69
2022/09/22 10:38:47;;;;;;;1.70;1.60;;;13.60;99.90;;;;;;472763;251;28619;-68
2022/09/22 10:40:48;;;;;;;1.70;1.60;;;13.80;99.90;;;;;;472765;251;28498;-69
2022/09/22 10:42:50;;;;;;;1.60;1.50;;;13.90;99.90;;;;;;472787;251;28191;-71
2022/09/22 10:44:51;;;;;;;2.30;1.40;;;13.90;99.90;;;;;;472772;251;28287;-69
2022/09/22 10:46:54;;;;;;;1.50;1.43;;;13.80;99.90;;;;;;472732;251;28269;-70